Airport Name : Bristol

Other Name : Bristol

ICAO : EGGD

IATA : BRS

FAA :

Latitude : 51.382669

Longitude : -2.719089

Country : United Kingdom

Local Date and Time : 18 Jul 2024 18:38

 

TAF (Terminal Aerodrome Forecast)

TAF EGGD 181658Z 1818/1918 19006KT 9999 FEW035 TEMPO 1823/1907 7000 PROB40 TEMPO 1903/1906 3000 BR

 

METAR (METeorological Aerodrome Report)

EGGD 181720Z AUTO 19007KT 160V230 9999 NCD 24/16 Q1019

EGGD 181650Z AUTO 21007KT 170V240 9999 SCT039 25/16 Q1019

EGGD 181620Z AUTO 20008KT 160V230 9999 BKN039 25/16 Q1019

EGGD 181550Z AUTO 19004KT 150V260 9999 SCT039 24/15 Q1019

EGGD 181520Z AUTO 20007KT 160V220 9999 SCT040 25/15 Q1019

EGGD 181450Z AUTO 16007KT 110V210 9999 FEW042 25/15 Q1019

EGGD 181420Z AUTO 17008KT 130V210 9999 BKN041 25/15 Q1019

EGGD 181350Z AUTO 19005KT 140V240 9999 BKN039 BKN046 24/15 Q1019